createdAt,value
2019-01-06T00:02:22.923Z,22.13
2019-01-06T00:05:05.081Z,17.40
2019-01-06T00:07:44.057Z,21.47
2019-01-06T00:10:30.061Z,25.40
2019-01-06T00:13:02.601Z,13.97
2019-01-06T00:15:32.684Z,19.50
2019-01-06T00:18:19.073Z,22.17
2019-01-06T00:20:55.157Z,20.43
2019-01-06T00:23:25.243Z,26.83
2019-01-06T00:26:01.484Z,26.23
2019-01-06T00:28:40.245Z,23.17
2019-01-06T00:31:16.541Z,32.70
2019-01-06T00:33:49.435Z,27.30
2019-01-06T00:36:35.993Z,23.03
2019-01-06T00:39:13.359Z,28.93
2019-01-06T00:41:46.683Z,29.57
2019-01-06T00:44:26.035Z,27.13
2019-01-06T00:46:56.805Z,34.03
2019-01-06T00:49:42.649Z,39.70
2019-01-06T00:52:24.496Z,35.67
2019-01-06T00:55:03.641Z,38.70
2019-01-06T00:57:48.735Z,52.23
2019-01-06T01:00:24.777Z,39.27
2019-01-06T01:03:06.913Z,32.53
2019-01-06T01:05:45.635Z,34.23
2019-01-06T01:08:15.724Z,42.03
2019-01-06T01:10:45.967Z,31.27
2019-01-06T01:13:32.169Z,28.60
2019-01-06T01:16:13.999Z,33.37
2019-01-06T01:18:53.165Z,28.63
2019-01-06T01:21:26.212Z,25.90
2019-01-06T01:23:59.355Z,33.83
2019-01-06T01:26:48.458Z,29.27
2019-01-06T01:29:32.034Z,35.13
2019-01-06T01:32:04.609Z,33.70
2019-01-06T01:34:37.315Z,38.07
2019-01-06T01:37:16.069Z,31.00
2019-01-06T01:39:57.953Z,34.07
2019-01-06T01:42:27.997Z,27.20
2019-01-06T01:45:07.395Z,30.20
2019-01-06T01:47:53.526Z,35.97
2019-01-06T01:50:39.661Z,40.17
2019-01-06T01:53:27.760Z,32.87
2019-01-06T01:56:13.617Z,40.90
2019-01-06T01:58:43.733Z,41.00
2019-01-06T02:01:16.559Z,53.73
2019-01-06T02:03:52.575Z,38.50
2019-01-06T02:06:41.353Z,38.80
2019-01-06T02:09:11.697Z,33.93
2019-01-06T02:12:01.587Z,35.80
2019-01-06T02:14:31.898Z,40.07
2019-01-06T02:17:18.492Z,44.83
2019-01-06T02:19:56.481Z,48.73
2019-01-06T02:22:42.941Z,39.47
2019-01-06T02:25:27.795Z,31.83
2019-01-06T02:28:15.941Z,35.87
2019-01-06T02:30:51.703Z,42.87
2019-01-06T02:33:21.839Z,29.60
2019-01-06T02:35:57.655Z,27.73
2019-01-06T02:38:27.733Z,40.93
2019-01-06T02:41:13.937Z,40.97
2019-01-06T02:43:49.749Z,30.37
2019-01-06T02:46:19.825Z,45.47
2019-01-06T02:48:55.935Z,34.97
2019-01-06T02:51:26.022Z,30.57
2019-01-06T02:53:56.165Z,36.90
2019-01-06T02:56:44.218Z,31.30
2019-01-06T02:59:30.686Z,36.07
2019-01-06T03:02:16.534Z,36.73
2019-01-06T03:04:55.453Z,34.73
2019-01-06T03:07:31.461Z,29.07
2019-01-06T03:10:01.565Z,34.20
2019-01-06T03:12:47.983Z,36.37
2019-01-06T03:15:20.774Z,33.60
2019-01-06T03:17:53.834Z,36.27
2019-01-06T03:20:23.895Z,40.70
2019-01-06T03:22:55.498Z,39.37
2019-01-06T03:25:34.389Z,34.73
2019-01-06T03:28:13.325Z,37.70
2019-01-06T03:30:49.269Z,39.83
2019-01-06T03:33:22.190Z,34.27
2019-01-06T03:35:55.195Z,31.47
2019-01-06T03:38:40.165Z,45.67
2019-01-06T03:41:26.244Z,37.93
2019-01-06T03:44:01.919Z,40.37
2019-01-06T03:46:46.849Z,39.57
2019-01-06T03:49:28.957Z,44.00
2019-01-06T03:52:04.860Z,46.30
2019-01-06T03:54:42.093Z,38.47
2019-01-06T03:57:15.959Z,44.60
2019-01-06T04:00:04.089Z,44.73
2019-01-06T04:02:37.500Z,42.40
2019-01-06T04:05:13.785Z,57.17
2019-01-06T04:07:49.683Z,51.50
2019-01-06T04:10:19.839Z,45.13
2019-01-06T04:12:49.986Z,42.20
2019-01-06T04:15:20.343Z,45.10
2019-01-06T04:17:50.493Z,40.93
2019-01-06T04:20:35.419Z,47.07
2019-01-06T04:23:14.304Z,45.20
2019-01-06T04:26:00.270Z,35.53
2019-01-06T04:28:46.800Z,47.27
2019-01-06T04:31:16.873Z,43.90
2019-01-06T04:33:49.610Z,39.93
2019-01-06T04:36:31.637Z,45.70
2019-01-06T04:39:10.628Z,38.83
2019-01-06T04:41:56.999Z,42.63
2019-01-06T04:44:27.072Z,48.77
2019-01-06T04:47:15.276Z,47.62
2019-01-06T04:49:54.198Z,44.33
2019-01-06T04:52:26.845Z,49.37
2019-01-06T04:54:59.965Z,46.63
2019-01-06T04:57:30.018Z,46.40
2019-01-06T05:00:00.159Z,45.13
2019-01-06T05:02:30.261Z,45.30
2019-01-06T05:05:16.410Z,34.57
2019-01-06T05:07:55.299Z,41.70
2019-01-06T05:10:40.352Z,40.63
2019-01-06T05:13:26.669Z,44.47
2019-01-06T05:15:59.449Z,40.97
2019-01-06T05:18:29.532Z,39.47
2019-01-06T05:21:05.560Z,46.10
2019-01-06T05:23:41.556Z,39.00
2019-01-06T05:26:23.777Z,45.43
2019-01-06T05:28:59.700Z,52.45
2019-01-06T05:31:38.808Z,55.97
2019-01-06T05:34:24.088Z,43.87
2019-01-06T05:37:10.204Z,39.10
2019-01-06T05:39:45.768Z,47.33
2019-01-06T05:42:21.676Z,53.50
2019-01-06T05:44:58.182Z,52.07
2019-01-06T05:47:28.267Z,53.00
2019-01-06T05:50:16.128Z,43.60
2019-01-06T05:53:02.089Z,48.83
2019-01-06T05:55:48.235Z,52.47
2019-01-06T05:58:27.175Z,54.97
2019-01-06T06:01:13.412Z,57.40
2019-01-06T06:03:43.475Z,46.77
2019-01-06T06:06:25.565Z,42.53
2019-01-06T06:08:55.653Z,46.00
2019-01-06T06:11:37.501Z,46.80
2019-01-06T06:14:07.597Z,51.10
2019-01-06T06:16:37.657Z,57.27
2019-01-06T06:19:23.779Z,44.70
2019-01-06T06:21:59.529Z,44.47
2019-01-06T06:24:29.701Z,56.70
2019-01-06T06:26:59.807Z,56.07
2019-01-06T06:29:41.677Z,44.73
2019-01-06T06:32:29.471Z,39.80
2019-01-06T06:35:02.199Z,39.90
2019-01-06T06:37:32.239Z,43.57
2019-01-06T06:40:11.221Z,37.40
2019-01-06T06:42:41.277Z,47.37
2019-01-06T06:45:23.069Z,44.07
2019-01-06T06:48:09.483Z,36.10
2019-01-06T06:50:48.477Z,57.23
2019-01-06T06:53:27.363Z,52.57
2019-01-06T06:56:03.460Z,38.47
2019-01-06T06:58:33.512Z,35.37
2019-01-06T07:01:12.412Z,44.03
2019-01-06T07:03:59.558Z,40.87
2019-01-06T07:06:45.804Z,46.40
2019-01-06T07:09:18.824Z,42.23
2019-01-06T07:12:06.880Z,41.73
2019-01-06T07:14:52.919Z,37.70
2019-01-06T07:17:47.515Z,43.90
2019-01-06T07:20:26.320Z,48.07
2019-01-06T07:23:11.243Z,41.83
2019-01-06T07:25:57.097Z,38.60
2019-01-06T07:28:39.006Z,42.53
2019-01-06T07:31:15.093Z,44.53
2019-01-06T07:34:03.232Z,53.73
2019-01-06T07:36:48.149Z,46.00
2019-01-06T07:39:23.797Z,37.30
2019-01-06T07:41:56.863Z,42.97
2019-01-06T07:44:26.908Z,53.60
2019-01-06T07:47:13.155Z,41.80
2019-01-06T07:49:55.186Z,46.00
2019-01-06T07:52:31.381Z,42.23
2019-01-06T07:55:17.579Z,44.00
2019-01-06T07:57:51.295Z,49.73
2019-01-06T08:00:37.053Z,44.33
2019-01-06T08:03:21.985Z,44.90
2019-01-06T08:06:08.030Z,62.03
2019-01-06T08:08:44.084Z,57.80
2019-01-06T08:11:29.221Z,51.73
2019-01-06T08:14:07.725Z,57.07
2019-01-06T08:16:53.949Z,57.63
2019-01-06T08:19:24.028Z,51.67
2019-01-06T08:21:54.200Z,49.00
2019-01-06T08:24:39.492Z,50.47
2019-01-06T08:27:09.610Z,44.53
2019-01-06T08:29:55.578Z,58.17
2019-01-06T08:32:26.291Z,43.60
2019-01-06T08:34:56.335Z,55.53
2019-01-06T08:37:32.218Z,50.43
2019-01-06T08:40:07.908Z,56.73
2019-01-06T08:42:37.998Z,49.00
2019-01-06T08:45:08.200Z,47.57
2019-01-06T08:47:41.385Z,50.27
2019-01-06T08:50:20.148Z,53.20
2019-01-06T08:52:53.081Z,48.90
2019-01-06T08:55:25.616Z,59.97
2019-01-06T08:57:58.417Z,55.17
2019-01-06T09:00:44.579Z,61.47
2019-01-06T09:03:23.505Z,52.10
2019-01-06T09:06:08.636Z,55.37
2019-01-06T09:08:53.611Z,57.13
2019-01-06T09:11:39.715Z,53.03
2019-01-06T09:14:26.112Z,47.80
2019-01-06T09:17:05.240Z,44.93
2019-01-06T09:19:35.324Z,42.60
2019-01-06T09:22:07.813Z,51.83
2019-01-06T09:24:46.722Z,52.93
2019-01-06T09:27:19.458Z,42.90
2019-01-06T09:29:52.997Z,49.07
2019-01-06T09:32:39.027Z,44.77
2019-01-06T09:35:25.477Z,51.03
2019-01-06T09:37:58.274Z,61.20
2019-01-06T09:40:37.210Z,61.27
2019-01-06T09:43:21.919Z,58.57
2019-01-06T09:46:07.013Z,48.03
2019-01-06T09:48:48.860Z,50.97
2019-01-06T09:51:27.943Z,51.10
2019-01-06T09:54:12.804Z,55.17
2019-01-06T09:56:59.133Z,51.23
2019-01-06T09:59:45.382Z,46.80
2019-01-06T10:02:18.154Z,46.03
2019-01-06T10:05:04.249Z,53.67
2019-01-06T10:07:43.121Z,47.53
2019-01-06T10:10:21.683Z,48.33
2019-01-06T10:13:00.383Z,43.53
2019-01-06T10:15:48.202Z,45.70
2019-01-06T10:18:21.174Z,44.77
2019-01-06T10:20:54.956Z,44.10
2019-01-06T10:23:37.216Z,44.50
2019-01-06T10:26:23.413Z,47.00
2019-01-06T10:28:53.499Z,42.50
2019-01-06T10:31:35.605Z,40.00
2019-01-06T10:34:08.635Z,44.40
2019-01-06T10:36:44.606Z,37.70
2019-01-06T10:39:14.724Z,39.43
2019-01-06T10:41:59.587Z,35.47
2019-01-06T10:44:35.449Z,36.63
2019-01-06T10:47:05.521Z,40.03
2019-01-06T10:49:51.751Z,41.93
2019-01-06T10:52:38.513Z,37.63
2019-01-06T10:55:20.205Z,49.50
2019-01-06T10:57:50.249Z,43.47
2019-01-06T11:00:20.366Z,44.37
2019-01-06T11:02:50.410Z,41.17
2019-01-06T11:05:32.450Z,49.40
2019-01-06T11:08:18.301Z,44.57
2019-01-06T11:10:56.935Z,56.93
2019-01-06T11:13:42.092Z,35.47
2019-01-06T11:16:18.025Z,32.33
2019-01-06T11:18:56.909Z,37.17
2019-01-06T11:21:35.832Z,41.53
2019-01-06T11:24:17.789Z,32.57
2019-01-06T11:27:04.202Z,66.30
2019-01-06T11:29:34.278Z,33.53
2019-01-06T11:32:13.332Z,35.73
2019-01-06T11:34:43.420Z,36.63
2019-01-06T11:37:29.558Z,35.93
2019-01-06T11:40:05.266Z,35.00
2019-01-06T11:42:38.007Z,36.07
2019-01-06T11:45:24.602Z,38.40
2019-01-06T11:48:03.201Z,30.70
2019-01-06T11:50:33.286Z,33.53
2019-01-06T11:53:03.352Z,40.60
2019-01-06T11:55:42.169Z,32.17
2019-01-06T11:58:15.228Z,31.30
2019-01-06T12:01:01.276Z,45.37
2019-01-06T12:03:40.039Z,32.27
2019-01-06T12:06:10.133Z,29.70
2019-01-06T12:08:43.094Z,35.13
2019-01-06T12:11:19.237Z,35.40
2019-01-06T12:14:05.597Z,35.57
2019-01-06T12:16:51.640Z,42.90
2019-01-06T12:19:37.777Z,36.97
2019-01-06T12:22:25.056Z,43.10
2019-01-06T12:24:57.941Z,47.60
2019-01-06T12:27:39.784Z,42.70
2019-01-06T12:30:15.851Z,47.00
2019-01-06T12:33:00.639Z,50.00
2019-01-06T12:35:36.311Z,47.17
2019-01-06T12:38:12.172Z,41.07
2019-01-06T12:40:57.363Z,40.60
2019-01-06T12:43:33.368Z,42.20
2019-01-06T12:46:19.472Z,37.93
2019-01-06T12:48:49.575Z,40.67
2019-01-06T12:51:22.604Z,46.80
2019-01-06T12:54:04.532Z,41.67
2019-01-06T12:56:51.018Z,42.63
2019-01-06T12:59:23.781Z,54.87
2019-01-06T13:02:02.578Z,39.67
2019-01-06T13:04:35.613Z,35.73
2019-01-06T13:07:05.824Z,44.10
2019-01-06T13:09:44.676Z,70.45
2019-01-06T13:12:14.768Z,42.20
2019-01-06T13:14:50.967Z,40.70
2019-01-06T13:17:23.957Z,38.90
2019-01-06T13:19:59.696Z,44.97
2019-01-06T13:22:35.496Z,47.03
2019-01-06T13:25:08.433Z,59.93
2019-01-06T13:27:38.498Z,42.90
2019-01-06T13:30:14.193Z,40.77
2019-01-06T13:33:00.212Z,35.17
2019-01-06T13:35:39.367Z,43.87
2019-01-06T13:38:25.744Z,42.13
2019-01-06T13:41:13.059Z,32.60
2019-01-06T13:43:59.282Z,38.87
2019-01-06T13:46:35.162Z,40.27
2019-01-06T13:49:10.926Z,54.07
2019-01-06T13:51:41.003Z,47.90
2019-01-06T13:54:19.633Z,40.83
2019-01-06T13:56:49.740Z,49.97
2019-01-06T13:59:22.710Z,42.63
2019-01-06T14:02:10.955Z,42.80
2019-01-06T14:04:50.117Z,44.63
2019-01-06T14:07:23.834Z,57.33
2019-01-06T14:10:05.792Z,45.60
2019-01-06T14:12:38.372Z,40.37
2019-01-06T14:15:14.157Z,45.47
2019-01-06T14:18:00.237Z,45.23
2019-01-06T14:20:46.611Z,38.77
2019-01-06T14:23:25.795Z,53.87
2019-01-06T14:26:11.901Z,48.87
2019-01-06T14:29:02.800Z,47.10
2019-01-06T14:31:50.792Z,35.10
2019-01-06T14:34:29.422Z,36.10
2019-01-06T14:36:59.487Z,33.73
2019-01-06T14:39:45.285Z,47.20
2019-01-06T14:42:27.533Z,32.93
2019-01-06T14:45:09.335Z,33.63
2019-01-06T14:47:57.245Z,38.10
2019-01-06T14:50:30.034Z,31.47
2019-01-06T14:53:00.095Z,38.83
2019-01-06T14:55:32.922Z,44.70
2019-01-06T14:58:18.749Z,30.03
2019-01-06T15:01:04.673Z,34.37
2019-01-06T15:03:34.729Z,33.30
2019-01-06T15:06:04.818Z,44.50
2019-01-06T15:08:51.067Z,34.93
2019-01-06T15:11:30.187Z,34.47
2019-01-06T15:14:06.413Z,30.93
2019-01-06T15:16:48.605Z,29.83
2019-01-06T15:19:18.669Z,40.73
2019-01-06T15:21:51.432Z,29.10
2019-01-06T15:24:24.158Z,31.80
2019-01-06T15:27:06.212Z,28.90
2019-01-06T15:29:36.287Z,39.40
2019-01-06T15:32:12.035Z,29.53
2019-01-06T15:34:51.077Z,41.93
2019-01-06T15:37:29.819Z,50.37
2019-01-06T15:40:06.501Z,32.87
2019-01-06T15:42:52.599Z,27.63
2019-01-06T15:45:31.397Z,31.77
2019-01-06T15:48:18.433Z,31.30
2019-01-06T15:50:51.353Z,26.50
2019-01-06T15:53:27.494Z,30.13
2019-01-06T15:55:57.580Z,29.57
2019-01-06T15:58:30.591Z,27.93
2019-01-06T16:01:06.345Z,40.07
2019-01-06T16:03:52.449Z,35.33
2019-01-06T16:06:31.639Z,35.03
2019-01-06T16:09:07.020Z,32.83
2019-01-06T16:11:37.069Z,27.60
2019-01-06T16:14:23.182Z,28.17
2019-01-06T16:16:59.289Z,34.73
2019-01-06T16:19:35.212Z,30.30
2019-01-06T16:22:22.965Z,38.53
2019-01-06T16:24:56.104Z,39.10
2019-01-06T16:27:42.193Z,42.77
2019-01-06T16:30:20.699Z,35.10
2019-01-06T16:32:50.758Z,33.87
2019-01-06T16:35:20.839Z,42.93
2019-01-06T16:37:59.779Z,42.17
2019-01-06T16:40:45.920Z,40.30
2019-01-06T16:43:27.870Z,41.20
2019-01-06T16:46:14.427Z,54.77
2019-01-06T16:48:56.314Z,63.47
2019-01-06T16:51:35.532Z,56.40
2019-01-06T16:54:11.616Z,58.73
2019-01-06T16:56:53.546Z,42.70
2019-01-06T16:59:41.556Z,66.43
2019-01-06T17:02:29.622Z,71.53
2019-01-06T17:05:05.700Z,60.77
2019-01-06T17:07:35.808Z,62.37
2019-01-06T17:10:22.626Z,88.57
2019-01-06T17:12:55.356Z,62.60
2019-01-06T17:15:34.127Z,64.80
2019-01-06T17:18:13.069Z,59.37
2019-01-06T17:20:43.131Z,53.00
2019-01-06T17:23:28.397Z,62.63
2019-01-06T17:25:58.471Z,112.03
2019-01-06T17:28:31.488Z,84.63
2019-01-06T17:31:13.490Z,57.37
2019-01-06T17:33:49.291Z,55.30
2019-01-06T17:36:37.226Z,57.30
2019-01-06T17:39:23.634Z,54.20
2019-01-06T17:42:02.397Z,50.53
2019-01-06T17:44:35.041Z,134.83
2019-01-06T17:47:20.079Z,61.47
2019-01-06T17:49:50.279Z,52.30
2019-01-06T17:52:32.288Z,51.00
2019-01-06T17:55:02.527Z,56.67
2019-01-06T17:57:32.671Z,61.53
2019-01-06T18:00:17.860Z,54.73
2019-01-06T18:02:47.929Z,54.63
2019-01-06T18:05:33.918Z,59.33
2019-01-06T18:08:20.279Z,60.57
2019-01-06T18:11:11.533Z,57.10
2019-01-06T18:13:47.612Z,52.00
2019-01-06T18:16:17.675Z,58.00
2019-01-06T18:18:47.756Z,62.57
2019-01-06T18:21:17.843Z,58.20
2019-01-06T18:24:02.557Z,56.17
2019-01-06T18:26:48.705Z,61.93
2019-01-06T18:29:30.958Z,55.60
2019-01-06T18:32:17.187Z,60.73
2019-01-06T18:34:53.324Z,54.60
2019-01-06T18:37:23.366Z,93.73
2019-01-06T18:40:05.295Z,69.23
2019-01-06T18:42:35.836Z,60.60
2019-01-06T18:45:09.206Z,57.30
2019-01-06T18:47:53.247Z,55.37
2019-01-06T18:50:23.485Z,55.03
2019-01-06T18:52:53.513Z,65.73
2019-01-06T18:55:29.613Z,70.67
2019-01-06T18:58:11.526Z,52.80
2019-01-06T19:00:50.718Z,57.97
2019-01-06T19:03:20.815Z,60.73
2019-01-06T19:05:50.935Z,54.23
2019-01-06T19:08:23.693Z,61.40
2019-01-06T19:11:02.420Z,62.33
2019-01-06T19:13:35.211Z,57.53
2019-01-06T19:16:09.110Z,67.43
2019-01-06T19:18:44.988Z,60.67
2019-01-06T19:21:15.131Z,55.83
2019-01-06T19:24:01.236Z,59.50
2019-01-06T19:26:37.244Z,71.37
2019-01-06T19:29:09.824Z,74.20
2019-01-06T19:31:51.904Z,64.97
2019-01-06T19:34:36.905Z,86.27
2019-01-06T19:37:09.844Z,72.70
2019-01-06T19:40:04.896Z,75.97
2019-01-06T19:42:37.742Z,73.13
2019-01-06T19:45:08.191Z,61.33
2019-01-06T19:47:41.051Z,101.50
2019-01-06T19:50:27.423Z,65.77
2019-01-06T19:53:13.723Z,78.00
2019-01-06T19:55:46.535Z,73.97
2019-01-06T19:58:28.462Z,63.03
2019-01-06T20:01:07.067Z,69.23
2019-01-06T20:03:43.574Z,71.28
2019-01-06T20:06:29.890Z,58.77
2019-01-06T20:08:59.979Z,56.43
2019-01-06T20:11:48.164Z,72.00
2019-01-06T20:14:23.780Z,67.03
2019-01-06T20:16:56.668Z,66.30
2019-01-06T20:19:42.832Z,60.73
2019-01-06T20:22:12.982Z,58.13
2019-01-06T20:24:59.977Z,60.97
2019-01-06T20:27:44.914Z,72.63
2019-01-06T20:30:15.009Z,66.20
2019-01-06T20:32:53.818Z,58.87
2019-01-06T20:35:29.668Z,61.73
2019-01-06T20:37:59.815Z,62.30
2019-01-06T20:40:45.921Z,61.67
2019-01-06T20:43:30.659Z,61.10
2019-01-06T20:46:03.434Z,56.17
2019-01-06T20:48:36.206Z,85.73
2019-01-06T20:51:09.284Z,59.10
2019-01-06T20:53:57.305Z,61.53
2019-01-06T20:56:43.343Z,47.73
2019-01-06T20:59:19.201Z,51.20
2019-01-06T21:02:03.846Z,62.53
2019-01-06T21:04:37.002Z,56.17
2019-01-06T21:07:22.890Z,61.37
2019-01-06T21:09:55.741Z,53.03
2019-01-06T21:12:42.174Z,50.50
2019-01-06T21:15:13.685Z,60.53
2019-01-06T21:17:46.251Z,64.87
2019-01-06T21:20:25.061Z,71.70
2019-01-06T21:23:01.194Z,56.03
2019-01-06T21:25:46.295Z,59.53
2019-01-06T21:28:16.399Z,50.10
2019-01-06T21:30:58.302Z,64.80
2019-01-06T21:33:31.419Z,52.67
2019-01-06T21:36:19.514Z,57.43
2019-01-06T21:38:49.637Z,53.63
2019-01-06T21:41:22.713Z,52.73
2019-01-06T21:43:52.916Z,54.90
2019-01-06T21:46:38.260Z,59.33
2019-01-06T21:49:17.820Z,58.00
2019-01-06T21:51:53.840Z,52.60
2019-01-06T21:54:40.287Z,48.37
2019-01-06T21:57:19.197Z,47.83
2019-01-06T22:00:01.054Z,44.93
2019-01-06T22:02:31.198Z,45.50
2019-01-06T22:05:17.526Z,60.30
2019-01-06T22:08:03.834Z,48.90
2019-01-06T22:10:33.928Z,61.53
2019-01-06T22:13:12.884Z,68.90
2019-01-06T22:15:54.527Z,52.67
2019-01-06T22:18:24.629Z,62.67
2019-01-06T22:20:57.671Z,63.83
2019-01-06T22:23:36.616Z,60.23
2019-01-06T22:26:18.463Z,65.10
2019-01-06T22:28:48.547Z,56.10
2019-01-06T22:31:25.195Z,56.67
2019-01-06T22:34:05.491Z,72.93
2019-01-06T22:36:35.567Z,70.17
2019-01-06T22:39:12.527Z,65.40
2019-01-06T22:41:54.713Z,82.50
2019-01-06T22:44:36.833Z,65.10
2019-01-06T22:47:18.987Z,72.60
2019-01-06T22:49:49.091Z,66.17
2019-01-06T22:52:37.006Z,63.93
2019-01-06T22:55:15.680Z,70.87
2019-01-06T22:58:01.754Z,75.53
2019-01-06T23:00:49.355Z,77.07
2019-01-06T23:03:34.080Z,64.23
2019-01-06T23:06:15.772Z,73.63
2019-01-06T23:09:02.208Z,60.80
2019-01-06T23:11:47.166Z,83.63
2019-01-06T23:14:26.188Z,69.27
2019-01-06T23:17:01.953Z,77.53
2019-01-06T23:19:35.004Z,79.27
2019-01-06T23:22:14.137Z,94.77
2019-01-06T23:24:44.256Z,80.67
2019-01-06T23:27:14.362Z,81.33
2019-01-06T23:29:44.451Z,97.80
2019-01-06T23:32:14.623Z,93.53
2019-01-06T23:34:53.346Z,78.13
2019-01-06T23:37:26.095Z,81.67
2019-01-06T23:40:12.145Z,82.27
2019-01-06T23:42:57.144Z,98.13
2019-01-06T23:45:40.796Z,93.30
2019-01-06T23:48:18.224Z,91.53
2019-01-06T23:51:04.604Z,87.13
2019-01-06T23:53:37.728Z,84.83
2019-01-06T23:56:23.996Z,84.07
2019-01-06T23:59:05.865Z,93.20
